Time;durP1;ratioP1;P1;durP2;ratioP2;P2;SDS_P1;SDS_P2;PMS_P1;PMS_P2;Temp;Humidity;BMP_temperature;BMP_pressure;BME280_temperature;BME280_humidity;BME280_pressure;Samples;Min_cycle;Max_cycle;Signal;HPM_P1;HPM_P2
2022/05/13 00:02:23;;;;;;;4.00;1.80;;;13.40;99.90;;;;;;5108448;28;20492;-75
2022/05/13 00:04:48;;;;;;;10.55;2.20;;;12.60;99.90;;;;;;5108271;28;20040;-77
2022/05/13 00:07:14;;;;;;;4.50;1.60;;;12.50;99.90;;;;;;5107999;28;20590;-76
2022/05/13 00:12:31;;;;;;;3.55;1.50;;;12.50;99.90;;;;;;5094408;28;20047;-77
2022/05/13 00:14:57;;;;;;;6.15;1.60;;;12.50;99.90;;;;;;5122074;27;20066;-77
2022/05/13 00:17:24;;;;;;;7.85;1.50;;;12.50;99.90;;;;;;5130995;27;20475;-76
2022/05/13 00:19:50;;;;;;;11.13;2.45;;;12.50;99.90;;;;;;5110461;27;20096;-76
2022/05/13 00:22:16;;;;;;;6.50;1.92;;;12.50;99.90;;;;;;5110925;27;20482;-77
2022/05/13 00:24:42;;;;;;;7.55;1.85;;;12.50;99.90;;;;;;5129411;27;20110;-76
2022/05/13 00:27:08;;;;;;;11.25;1.75;;;12.90;99.90;;;;;;5109972;27;20541;-76
2022/05/13 00:29:34;;;;;;;7.00;2.10;;;12.50;99.90;;;;;;5129441;27;20039;-76
2022/05/13 00:32:00;;;;;;;12.88;1.83;;;12.90;99.90;;;;;;5128154;27;20074;-76
2022/05/13 00:34:26;;;;;;;6.43;2.08;;;13.70;99.90;;;;;;5093850;27;20047;-77
2022/05/13 00:36:52;;;;;;;7.57;1.70;;;12.50;99.90;;;;;;5109522;27;20530;-76
2022/05/13 00:39:19;;;;;;;4.63;1.65;;;13.20;99.90;;;;;;5128785;27;20104;-76
2022/05/13 00:41:48;;;;;;;6.10;1.45;;;12.50;99.90;;;;;;5110485;27;20074;-76
2022/05/13 00:44:14;;;;;;;5.75;1.70;;;12.50;99.90;;;;;;5093335;27;20087;-76
2022/05/13 00:46:40;;;;;;;4.90;1.70;;;12.50;99.90;;;;;;5110335;27;20095;-76
2022/05/13 00:49:09;;;;;;;8.07;2.17;;;12.80;99.90;;;;;;5127821;27;20047;-76
2022/05/13 00:51:39;;;;;;;11.48;2.80;;;12.50;99.90;;;;;;5128586;27;20049;-76
2022/05/13 00:54:12;;;;;;;6.10;1.88;;;12.50;99.90;;;;;;5109980;27;20379;-76
2022/05/13 00:56:47;;;;;;;5.03;1.70;;;12.50;99.90;;;;;;5110423;27;20126;-76
2022/05/13 00:59:18;;;;;;;4.80;1.15;;;12.50;99.90;;;;;;5110388;27;20176;-76
2022/05/13 01:01:44;;;;;;;9.57;2.28;;;12.50;99.90;;;;;;5127467;27;20427;-76
2022/05/13 01:04:13;;;;;;;8.02;1.95;;;12.50;99.90;;;;;;5110233;27;20047;-76
2022/05/13 01:06:43;;;;;;;5.53;1.63;;;12.60;99.90;;;;;;5109233;27;20486;-76
2022/05/13 01:09:09;;;;;;;7.65;1.92;;;12.50;99.90;;;;;;5109550;27;20065;-76
2022/05/13 01:11:38;;;;;;;7.28;1.80;;;12.50;99.90;;;;;;5092881;27;20382;-76
2022/05/13 01:14:11;;;;;;;5.57;1.63;;;12.50;99.90;;;;;;5127439;27;20095;-76
2022/05/13 01:19:21;;;;;;;7.88;1.67;;;12.70;99.90;;;;;;5127323;27;20624;-76
2022/05/13 01:21:48;;;;;;;8.88;2.38;;;12.50;99.90;;;;;;5127345;27;20137;-76
2022/05/13 01:24:16;;;;;;;9.40;2.22;;;12.50;99.90;;;;;;5109392;27;20046;-76
2022/05/13 01:26:42;;;;;;;11.75;1.85;;;12.50;99.90;;;;;;5127513;27;20542;-76
2022/05/13 01:29:07;;;;;;;5.50;2.40;;;12.50;99.90;;;;;;5109576;27;20073;-75
2022/05/13 01:31:37;;;;;;;8.45;1.88;;;12.50;99.90;;;;;;5108366;27;20043;-76
2022/05/13 01:34:09;;;;;;;7.25;1.98;;;12.30;99.90;;;;;;5128282;27;20086;-76
2022/05/13 01:36:35;;;;;;;6.78;1.88;;;12.50;99.90;;;;;;5127413;27;20043;-75
2022/05/13 01:39:02;;;;;;;5.93;2.20;;;12.50;99.90;;;;;;5109295;27;20092;-76
2022/05/13 01:41:28;;;;;;;6.65;2.10;;;12.50;99.90;;;;;;5109089;27;20050;-76
2022/05/13 01:43:54;;;;;;;6.68;2.10;;;12.50;99.90;;;;;;5127178;27;20083;-76
2022/05/13 01:46:21;;;;;;;4.63;1.75;;;12.60;99.90;;;;;;5092239;27;20088;-76
2022/05/13 01:48:48;;;;;;;12.20;2.70;;;12.40;99.90;;;;;;5108338;27;20278;-76
2022/05/13 01:51:14;;;;;;;11.85;2.05;;;12.50;99.90;;;;;;5109584;27;20109;-76
2022/05/13 01:53:40;;;;;;;7.63;1.83;;;12.40;99.90;;;;;;5091851;27;20207;-76
2022/05/13 01:56:06;;;;;;;5.55;2.05;;;13.10;99.90;;;;;;5127530;27;20046;-76
2022/05/13 01:58:33;;;;;;;12.88;2.13;;;12.50;99.90;;;;;;5092120;27;20054;-76
2022/05/13 02:00:59;;;;;;;8.90;2.15;;;12.40;99.90;;;;;;5108575;27;20039;-76
2022/05/13 02:03:45;;;;;;;7.90;2.30;;;12.70;99.90;;;;;;5108835;27;20096;-76
2022/05/13 02:06:22;;;;;;;12.80;2.70;;;12.40;99.90;;;;;;5126866;27;20111;-75
2022/05/13 02:08:50;;;;;;;6.10;2.13;;;12.40;99.90;;;;;;5108557;27;20047;-76
2022/05/13 02:11:17;;;;;;;7.00;2.33;;;13.40;99.90;;;;;;5108414;27;20482;-76
2022/05/13 02:13:43;;;;;;;10.02;1.83;;;12.40;99.90;;;;;;5107674;27;20035;-76
2022/05/13 02:16:10;;;;;;;11.05;2.40;;;12.40;99.90;;;;;;5127244;27;20439;-76
2022/05/13 02:18:37;;;;;;;8.73;2.35;;;12.40;99.90;;;;;;5126413;27;20146;-76
2022/05/13 02:21:03;;;;;;;8.25;2.92;;;12.40;99.90;;;;;;5108599;27;20096;-76
2022/05/13 02:23:29;;;;;;;11.35;2.67;;;12.40;99.90;;;;;;5107702;27;20046;-76
2022/05/13 02:26:01;;;;;;;16.15;3.03;;;12.40;99.90;;;;;;5108454;27;20043;-76
2022/05/13 02:28:30;;;;;;;6.53;2.30;;;12.50;99.90;;;;;;5108563;27;20103;-76
2022/05/13 02:30:56;;;;;;;7.15;2.13;;;12.50;99.90;;;;;;5107669;27;20039;-76
2022/05/13 02:33:22;;;;;;;14.45;3.05;;;12.50;99.90;;;;;;5127084;27;20047;-76
2022/05/13 02:35:48;;;;;;;7.28;2.53;;;12.50;99.90;;;;;;5126121;27;20122;-76
2022/05/13 02:38:15;;;;;;;8.07;2.42;;;12.50;99.90;;;;;;5091195;27;20042;-76
2022/05/13 02:43:26;;;;;;;9.65;2.40;;;13.20;99.90;;;;;;5126504;27;20050;-76
2022/05/13 02:45:52;;;;;;;14.50;2.45;;;12.40;99.90;;;;;;5109024;28;20100;-76
2022/05/13 02:48:18;;;;;;;14.65;2.90;;;12.50;99.90;;;;;;5107553;27;20447;-76
2022/05/13 02:50:44;;;;;;;9.23;2.80;;;12.90;99.90;;;;;;5108029;27;20039;-76
2022/05/13 02:53:09;;;;;;;12.02;2.67;;;12.40;99.90;;;;;;5107365;27;20306;-76
2022/05/13 02:55:35;;;;;;;8.18;2.50;;;12.40;99.90;;;;;;5057541;27;20047;-76
2022/05/13 02:58:01;;;;;;;8.13;3.45;;;12.50;99.90;;;;;;5126130;27;20396;-76
2022/05/13 03:00:27;;;;;;;9.80;2.95;;;12.50;99.90;;;;;;5090636;28;20137;-76
2022/05/13 03:02:52;;;;;;;10.27;3.28;;;12.50;99.90;;;;;;5108248;28;20050;-75
2022/05/13 03:05:19;;;;;;;8.73;3.25;;;12.70;99.90;;;;;;5090628;28;20508;-76
2022/05/13 03:07:45;;;;;;;11.05;2.53;;;12.80;99.90;;;;;;5108520;28;20051;-75
2022/05/13 03:10:11;;;;;;;9.18;2.53;;;12.40;99.90;;;;;;5089989;28;20509;-75
2022/05/13 03:12:38;;;;;;;14.57;2.95;;;13.40;99.90;;;;;;5057941;28;20078;-76
2022/05/13 03:15:05;;;;;;;9.52;2.92;;;13.50;99.90;;;;;;5125911;28;20506;-76
2022/05/13 03:17:31;;;;;;;12.75;4.00;;;12.40;99.90;;;;;;5126120;28;20054;-76
2022/05/13 03:19:57;;;;;;;15.10;2.90;;;12.40;99.90;;;;;;5126157;28;20043;-76
2022/05/13 03:22:23;;;;;;;11.43;2.90;;;12.40;99.90;;;;;;5125560;28;20042;-76
2022/05/13 03:24:49;;;;;;;12.48;2.40;;;12.40;99.90;;;;;;5126666;28;20039;-76
2022/05/13 03:27:15;;;;;;;8.80;2.85;;;12.40;99.90;;;;;;5125508;28;20047;-76
2022/05/13 03:29:41;;;;;;;15.88;3.10;;;12.40;99.90;;;;;;5107689;28;20039;-76
2022/05/13 03:32:08;;;;;;;13.60;3.33;;;12.40;99.90;;;;;;5107452;28;20050;-76
2022/05/13 03:34:37;;;;;;;10.35;2.13;;;12.40;99.90;;;;;;5090320;28;20509;-76
2022/05/13 03:37:04;;;;;;;12.30;2.47;;;12.80;99.90;;;;;;5126442;28;20043;-76
2022/05/13 03:39:29;;;;;;;17.08;2.83;;;12.40;99.90;;;;;;5106837;28;20509;-76
2022/05/13 03:41:55;;;;;;;11.90;3.30;;;13.40;99.90;;;;;;5090697;28;20073;-76
2022/05/13 03:44:21;;;;;;;14.35;3.13;;;12.40;99.90;;;;;;5106891;28;20096;-76
2022/05/13 03:46:47;;;;;;;9.13;2.83;;;12.40;99.90;;;;;;5125619;28;20046;-76
2022/05/13 03:49:13;;;;;;;16.52;2.97;;;12.40;99.90;;;;;;5107222;28;20075;-75
2022/05/13 03:51:39;;;;;;;12.57;2.92;;;12.40;99.90;;;;;;5107466;28;20121;-76
2022/05/13 03:54:05;;;;;;;12.90;2.83;;;12.40;99.90;;;;;;5107241;28;20047;-75
2022/05/13 03:56:31;;;;;;;10.60;2.78;;;12.40;99.90;;;;;;5089958;28;20043;-75
2022/05/13 03:58:57;;;;;;;11.98;2.63;;;12.40;99.90;;;;;;5126602;28;20042;-75
2022/05/13 04:01:23;;;;;;;10.32;2.55;;;12.40;99.90;;;;;;5090108;28;20082;-76
2022/05/13 04:03:49;;;;;;;14.60;2.85;;;12.40;99.90;;;;;;5107270;28;20075;-76
2022/05/13 04:09:02;;;;;;;6.75;2.60;;;12.40;99.90;;;;;;5107337;28;20405;-76
2022/05/13 04:11:37;;;;;;;12.32;2.90;;;12.30;99.90;;;;;;5110899;27;20039;-76
2022/05/13 04:16:52;;;;;;;9.63;2.88;;;12.90;99.90;;;;;;5129437;27;20134;-76
2022/05/13 04:19:19;;;;;;;12.23;2.65;;;12.30;99.90;;;;;;5129321;27;20110;-76
2022/05/13 04:21:46;;;;;;;9.68;2.55;;;13.50;99.90;;;;;;5128570;27;20039;-76
2022/05/13 04:24:14;;;;;;;14.27;3.08;;;12.40;99.90;;;;;;5129399;27;20046;-75
2022/05/13 04:26:40;;;;;;;15.52;2.97;;;12.40;99.90;;;;;;5128374;27;20079;-76
2022/05/13 04:29:06;;;;;;;10.88;3.42;;;13.00;99.90;;;;;;5129361;27;20083;-76
2022/05/13 04:31:37;;;;;;;13.88;3.67;;;12.40;99.90;;;;;;5076899;27;20055;-76
2022/05/13 04:34:03;;;;;;;10.63;2.63;;;12.40;99.90;;;;;;5110405;27;20417;-76
2022/05/13 04:36:30;;;;;;;15.20;3.45;;;12.40;99.90;;;;;;5129309;27;20036;-76
2022/05/13 04:38:56;;;;;;;14.18;3.10;;;12.40;99.90;;;;;;5093789;27;20096;-76
2022/05/13 04:44:09;;;;;;;11.98;2.97;;;13.20;99.90;;;;;;5127689;27;20414;-75
2022/05/13 04:46:36;;;;;;;17.88;3.67;;;13.30;99.90;;;;;;5093153;27;20043;-75
2022/05/13 04:49:03;;;;;;;12.15;2.50;;;12.50;99.90;;;;;;5109647;27;20039;-75
2022/05/13 04:51:29;;;;;;;16.17;3.50;;;12.50;99.90;;;;;;5128381;27;20395;-75
2022/05/13 04:53:56;;;;;;;18.25;4.15;;;13.80;99.90;;;;;;5128638;27;20042;-76
2022/05/13 04:56:23;;;;;;;14.63;2.60;;;12.60;99.90;;;;;;5109081;27;20043;-76
2022/05/13 04:58:49;;;;;;;18.85;4.82;;;12.60;99.90;;;;;;5110044;27;20036;-75
2022/05/13 05:01:17;;;;;;;9.95;2.42;;;12.60;99.90;;;;;;5109720;27;20051;-75
2022/05/13 05:03:44;;;;;;;15.25;2.78;;;12.60;99.90;;;;;;5128356;27;20043;-75
2022/05/13 05:06:11;;;;;;;14.68;3.00;;;12.70;99.90;;;;;;5109713;27;20073;-75
2022/05/13 05:08:38;;;;;;;22.77;3.10;;;12.70;99.90;;;;;;5092538;27;20054;-75
2022/05/13 05:11:05;;;;;;;21.08;2.42;;;13.80;99.90;;;;;;5128463;27;20040;-76
2022/05/13 05:13:42;;;;;;;13.40;2.60;;;12.80;99.90;;;;;;5127936;27;20035;-76
2022/05/13 05:16:09;;;;;;;11.43;3.10;;;12.80;99.90;;;;;;5093001;27;20499;-77
2022/05/13 05:18:36;;;;;;;11.30;2.58;;;12.90;99.90;;;;;;5109673;27;20054;-77
2022/05/13 05:21:03;;;;;;;15.07;2.33;;;12.90;99.90;;;;;;5109748;27;20047;-75
2022/05/13 05:23:32;;;;;;;14.00;2.20;;;13.00;99.90;;;;;;5109082;27;20080;-75
2022/05/13 05:25:58;;;;;;;9.23;2.58;;;13.00;99.90;;;;;;5109261;27;20035;-75
2022/05/13 05:28:28;;;;;;;8.88;2.13;;;13.10;99.90;;;;;;5129166;27;20039;-75
2022/05/13 05:30:56;;;;;;;16.02;2.33;;;13.50;99.90;;;;;;5127553;27;20039;-78
2022/05/13 05:33:22;;;;;;;8.27;2.40;;;13.20;99.90;;;;;;5109861;27;20113;-75
2022/05/13 05:35:48;;;;;;;8.88;1.88;;;13.30;99.90;;;;;;5127881;27;20035;-75
2022/05/13 05:38:14;;;;;;;10.48;2.45;;;13.30;99.90;;;;;;5128262;27;20039;-76
2022/05/13 05:40:40;;;;;;;14.32;2.03;;;13.30;99.90;;;;;;5109861;27;20394;-76
2022/05/13 05:43:08;;;;;;;8.93;1.90;;;13.40;99.90;;;;;;5127798;27;20406;-76
2022/05/13 05:45:37;;;;;;;8.20;1.90;;;13.50;99.90;;;;;;5128763;27;20542;-75
2022/05/13 05:48:04;;;;;;;9.15;1.48;;;13.50;99.90;;;;;;5108559;27;20047;-77
2022/05/13 05:50:31;;;;;;;4.18;1.35;;;13.60;99.90;;;;;;5092735;27;20101;-77
2022/05/13 05:52:57;;;;;;;12.05;2.00;;;13.60;99.90;;;;;;5109405;27;20047;-76
2022/05/13 05:58:13;;;;;;;6.72;1.55;;;13.60;99.90;;;;;;5128663;27;20118;-77
2022/05/13 06:00:42;;;;;;;9.48;1.67;;;13.50;99.90;;;;;;5108668;27;20046;-76
2022/05/13 06:03:09;;;;;;;7.50;1.80;;;13.60;99.90;;;;;;5109737;27;20086;-76
2022/05/13 06:05:35;;;;;;;8.55;1.50;;;13.60;99.90;;;;;;5092207;27;20127;-76
2022/05/13 06:08:02;;;;;;;7.90;1.48;;;13.60;99.90;;;;;;5092285;27;20470;-76
2022/05/13 06:10:29;;;;;;;9.02;1.45;;;13.60;99.90;;;;;;5109251;27;20047;-76
2022/05/13 06:12:55;;;;;;;5.15;1.15;;;13.70;99.90;;;;;;5127294;27;20118;-76
2022/05/13 06:15:22;;;;;;;6.47;1.20;;;13.60;99.90;;;;;;5127999;27;20442;-77
2022/05/13 06:17:56;;;;;;;5.93;1.17;;;14.60;99.90;;;;;;5127282;27;20051;-76
2022/05/13 06:20:25;;;;;;;4.70;1.33;;;13.60;99.90;;;;;;5127605;27;20043;-77
2022/05/13 06:22:51;;;;;;;9.10;1.48;;;13.60;99.90;;;;;;5127453;27;20035;-77
2022/05/13 06:25:21;;;;;;;4.65;1.55;;;13.60;99.90;;;;;;5092038;27;20051;-77
2022/05/13 06:27:48;;;;;;;5.43;1.10;;;13.60;99.90;;;;;;5127457;27;20047;-77
2022/05/13 06:30:18;;;;;;;9.20;1.02;;;13.70;99.90;;;;;;5108502;27;20096;-77
2022/05/13 06:32:44;;;;;;;6.60;1.50;;;13.60;99.90;;;;;;5108818;27;20478;-79
2022/05/13 06:35:11;;;;;;;4.35;1.30;;;13.70;99.90;;;;;;5108539;27;20058;-77
2022/05/13 06:37:37;;;;;;;4.63;1.05;;;13.80;99.90;;;;;;5127247;27;20180;-76
2022/05/13 06:40:05;;;;;;;5.35;1.40;;;13.80;99.90;;;;;;5108341;27;20491;-77
2022/05/13 06:42:30;;;;;;;7.43;1.55;;;13.90;99.90;;;;;;5126783;27;20565;-77
2022/05/13 06:44:56;;;;;;;7.30;1.50;;;14.50;99.90;;;;;;5108813;27;20055;-77
2022/05/13 06:47:22;;;;;;;9.75;1.35;;;14.00;99.90;;;;;;5091481;27;20039;-77
2022/05/13 06:49:48;;;;;;;4.88;0.90;;;14.10;99.90;;;;;;5127313;27;20053;-77
2022/05/13 06:52:14;;;;;;;7.25;1.58;;;14.20;99.90;;;;;;5108512;27;20043;-77
2022/05/13 06:54:41;;;;;;;5.43;1.35;;;14.40;99.90;;;;;;5108817;27;20051;-77
2022/05/13 06:57:07;;;;;;;8.07;1.08;;;14.80;99.90;;;;;;5108166;27;20136;-77
2022/05/13 06:59:33;;;;;;;7.57;1.52;;;14.50;99.90;;;;;;5108289;27;20638;-77
2022/05/13 07:01:59;;;;;;;5.38;1.10;;;14.50;99.90;;;;;;5091783;28;20074;-77
2022/05/13 07:04:24;;;;;;;7.43;1.35;;;14.60;99.90;;;;;;5126290;27;20126;-77
2022/05/13 07:06:51;;;;;;;6.68;1.75;;;14.70;99.90;;;;;;5092412;28;20092;-77
2022/05/13 07:09:16;;;;;;;10.80;1.48;;;14.80;99.90;;;;;;5126188;28;20477;-77
2022/05/13 07:11:44;;;;;;;6.80;1.58;;;14.80;99.90;;;;;;5127214;28;20122;-77
2022/05/13 07:14:10;;;;;;;8.43;1.38;;;14.80;99.90;;;;;;5107846;28;20062;-76
2022/05/13 07:16:36;;;;;;;7.93;1.55;;;14.80;99.90;;;;;;5108533;28;20119;-77
2022/05/13 07:19:02;;;;;;;3.28;0.82;;;14.80;99.90;;;;;;5091553;28;20102;-77
2022/05/13 07:21:28;;;;;;;4.80;1.45;;;14.00;99.90;;;;;;5107598;28;20047;-77
2022/05/13 07:23:53;;;;;;;7.70;1.33;;;14.70;99.90;;;;;;5127212;28;20052;-77
2022/05/13 07:26:19;;;;;;;3.28;1.23;;;14.60;99.90;;;;;;5126311;28;20455;-77
2022/05/13 07:28:45;;;;;;;6.97;1.27;;;14.60;99.90;;;;;;5127131;28;20043;-77
2022/05/13 07:31:10;;;;;;;7.20;1.52;;;14.80;99.90;;;;;;5126822;28;20045;-78
2022/05/13 07:33:36;;;;;;;6.25;1.48;;;15.10;99.90;;;;;;5126955;28;20447;-78
2022/05/13 07:36:03;;;;;;;5.00;1.05;;;15.30;99.90;;;;;;5127369;28;20478;-78
2022/05/13 07:38:30;;;;;;;6.50;1.33;;;15.30;99.90;;;;;;5126377;28;20043;-77
2022/05/13 07:43:43;;;;;;;3.08;1.35;;;15.30;99.90;;;;;;5126644;28;20050;-77
2022/05/13 07:46:08;;;;;;;4.10;0.77;;;15.30;99.90;;;;;;5110646;27;20093;-77
2022/05/13 07:48:34;;;;;;;5.47;1.00;;;15.20;99.90;;;;;;5111992;27;20506;-77
2022/05/13 07:51:00;;;;;;;5.47;1.20;;;15.40;99.90;;;;;;5111876;27;20535;-77
2022/05/13 07:53:25;;;;;;;3.15;0.73;;;15.50;99.90;;;;;;5095184;27;20039;-78
2022/05/13 07:55:51;;;;;;;6.55;1.38;;;15.60;99.90;;;;;;5111467;27;20180;-77
2022/05/13 07:58:17;;;;;;;3.45;0.95;;;15.60;99.90;;;;;;5112105;27;20119;-78
2022/05/13 08:00:43;;;;;;;4.68;1.27;;;15.50;99.90;;;;;;5110931;27;20500;-78
2022/05/13 08:03:12;;;;;;;3.58;0.65;;;15.50;99.90;;;;;;5111452;27;20100;-77
2022/05/13 08:05:42;;;;;;;3.83;0.60;;;15.50;99.90;;;;;;5111196;27;20097;-76
2022/05/13 08:08:10;;;;;;;8.48;0.95;;;15.50;99.90;;;;;;5110899;27;20047;-76
2022/05/13 08:10:37;;;;;;;5.05;1.00;;;15.50;99.90;;;;;;5111730;27;20039;-77
2022/05/13 08:13:04;;;;;;;3.17;0.73;;;15.40;99.90;;;;;;5110517;27;20133;-76
2022/05/13 08:15:30;;;;;;;6.28;1.42;;;15.40;99.90;;;;;;5111251;27;20051;-77
2022/05/13 08:17:56;;;;;;;8.52;1.08;;;15.30;99.90;;;;;;5111485;27;20394;-77
2022/05/13 08:20:23;;;;;;;6.13;0.77;;;15.30;99.90;;;;;;5110995;27;20042;-77
2022/05/13 08:22:49;;;;;;;5.97;0.75;;;15.30;99.90;;;;;;5111826;27;20055;-77
2022/05/13 08:25:15;;;;;;;5.22;0.93;;;15.40;99.90;;;;;;5129276;27;20506;-77
2022/05/13 08:27:41;;;;;;;7.53;1.17;;;15.40;99.90;;;;;;5130159;27;20104;-77
2022/05/13 08:30:09;;;;;;;4.85;0.93;;;15.40;99.90;;;;;;5110275;27;20136;-76
2022/05/13 08:32:35;;;;;;;5.32;0.73;;;15.40;99.90;;;;;;5129839;27;20084;-77
2022/05/13 08:35:01;;;;;;;5.70;1.08;;;15.30;99.90;;;;;;5129203;27;20537;-77
2022/05/13 08:37:27;;;;;;;4.00;0.82;;;15.40;99.90;;;;;;5111296;27;20138;-77
2022/05/13 08:40:01;;;;;;;5.47;1.00;;;15.40;99.90;;;;;;5129331;27;20035;-76
2022/05/13 08:42:37;;;;;;;2.03;0.70;;;15.70;99.90;;;;;;5111025;27;20055;-77
2022/05/13 08:45:10;;;;;;;4.65;0.80;;;15.90;99.90;;;;;;5094006;27;20045;-76
2022/05/13 08:47:57;;;;;;;6.70;0.90;;;16.30;99.90;;;;;;5110656;27;20498;-77
2022/05/13 08:50:25;;;;;;;7.60;1.27;;;16.60;99.90;;;;;;5110433;27;20051;-77
2022/05/13 08:53:19;;;;;;;3.10;0.90;;;16.70;99.90;;;;;;5110344;27;20043;-77
2022/05/13 08:55:55;;;;;;;7.38;0.75;;;16.70;99.90;;;;;;5109613;27;20043;-76
2022/05/13 08:58:38;;;;;;;3.05;0.93;;;16.50;99.90;;;;;;5110333;27;20071;-77
2022/05/13 09:01:09;;;;;;;10.37;0.97;;;16.40;99.90;;;;;;5128842;27;20559;-77
2022/05/13 09:03:42;;;;;;;6.63;0.80;;;16.10;99.90;;;;;;5129184;27;20051;-77
2022/05/13 09:06:26;;;;;;;4.47;1.05;;;16.10;99.90;;;;;;5111240;27;20050;-77
2022/05/13 09:08:53;;;;;;;5.28;1.27;;;16.40;99.90;;;;;;5109765;27;20054;-77
2022/05/13 09:11:38;;;;;;;6.07;0.80;;;16.70;99.90;;;;;;5093501;27;20285;-77
2022/05/13 09:14:40;;;;;;;4.13;0.77;;;16.90;99.90;;;;;;5128486;27;20566;-77
2022/05/13 09:17:15;;;;;;;3.67;0.60;;;16.60;99.90;;;;;;5086282;28;20380;-76
2022/05/13 09:19:43;;;;;;;3.00;0.80;;;16.60;99.90;;;;;;5086924;28;20048;-76
2022/05/13 09:22:11;;;;;;;3.55;0.60;;;16.50;99.90;;;;;;5069044;28;20048;-76
2022/05/13 09:24:37;;;;;;;4.10;0.60;;;16.60;99.90;;;;;;5069404;28;20538;-77
2022/05/13 09:27:04;;;;;;;4.30;0.88;;;16.80;99.90;;;;;;5069525;28;20419;-76
2022/05/13 09:29:41;;;;;;;2.55;0.65;;;16.90;99.90;;;;;;5086285;28;20513;-76
2022/05/13 09:32:23;;;;;;;3.13;0.65;;;16.80;99.90;;;;;;5086461;28;20063;-75
2022/05/13 09:35:08;;;;;;;3.63;0.88;;;16.70;99.90;;;;;;5087448;28;20040;-75
2022/05/13 09:37:40;;;;;;;2.45;0.60;;;16.60;99.90;;;;;;5087707;28;20047;-75
2022/05/13 09:40:19;;;;;;;8.88;0.88;;;16.70;99.90;;;;;;5087980;28;20063;-75
2022/05/13 09:42:47;;;;;;;1.27;0.50;;;16.80;99.90;;;;;;5085442;28;20040;-76
2022/05/13 09:45:31;;;;;;;3.83;1.10;;;16.70;99.90;;;;;;5087831;28;20036;-76
2022/05/13 09:48:05;;;;;;;0.93;0.35;;;16.70;99.90;;;;;;5068740;28;20040;-76
2022/05/13 09:50:34;;;;;;;3.70;0.60;;;16.60;99.90;;;;;;5087220;28;20072;-76
2022/05/13 09:53:15;;;;;;;3.70;0.75;;;16.50;99.90;;;;;;5087502;28;20044;-76
2022/05/13 09:55:41;;;;;;;4.05;0.38;;;16.30;99.90;;;;;;5086886;28;20048;-76
2022/05/13 09:58:18;;;;;;;3.92;0.65;;;16.30;99.90;;;;;;5086166;28;20051;-76
2022/05/13 10:00:50;;;;;;;2.80;0.55;;;16.20;99.90;;;;;;5085818;28;20132;-76
2022/05/13 10:03:21;;;;;;;3.85;0.70;;;16.10;99.90;;;;;;5086144;28;20130;-76
2022/05/13 10:06:17;;;;;;;2.58;1.50;;;16.30;99.90;;;;;;5085939;28;20048;-76
2022/05/13 10:08:55;;;;;;;5.18;0.73;;;16.00;99.90;;;;;;5068104;28;20040;-76
2022/05/13 10:14:29;;;;;;;3.13;0.75;;;16.40;99.90;;;;;;5085485;28;20055;-76
2022/05/13 10:17:17;;;;;;;1.85;0.50;;;16.90;99.90;;;;;;5104260;28;20099;-76
2022/05/13 10:19:48;;;;;;;3.58;0.60;;;17.20;99.90;;;;;;5105659;28;20040;-76
2022/05/13 10:22:38;;;;;;;6.93;0.82;;;17.60;99.90;;;;;;5088597;28;20127;-76
2022/05/13 10:25:08;;;;;;;5.15;1.00;;;18.00;99.20;;;;;;5105167;28;20047;-77
2022/05/13 10:27:45;;;;;;;6.93;1.13;;;18.30;99.90;;;;;;5089830;28;20043;-76
2022/05/13 10:30:28;;;;;;;4.90;0.80;;;18.60;99.80;;;;;;5105617;28;20130;-77
2022/05/13 10:33:08;;;;;;;1.58;0.50;;;18.90;99.60;;;;;;5105340;28;20040;-78
2022/05/13 10:35:52;;;;;;;4.97;0.70;;;19.40;93.40;;;;;;5105648;28;20051;-77
2022/05/13 10:38:28;;;;;;;4.28;0.93;;;19.50;93.20;;;;;;5087891;28;20054;-77
2022/05/13 10:40:56;;;;;;;3.72;0.73;;;19.50;94.10;;;;;;5088594;28;20035;-77
2022/05/13 10:43:35;;;;;;;5.72;0.55;;;19.30;95.90;;;;;;5105047;28;20122;-77
2022/05/13 10:46:12;;;;;;;3.35;0.60;;;19.30;91.20;;;;;;5105453;28;20394;-78
2022/05/13 10:48:38;;;;;;;6.60;0.90;;;19.20;86.10;;;;;;5106107;28;20071;-79
2022/05/13 10:51:34;;;;;;;2.70;1.02;;;19.00;94.60;;;;;;5104719;28;20043;-78
2022/05/13 10:54:23;;;;;;;2.13;0.47;;;19.00;91.90;;;;;;5105122;28;20043;-76
2022/05/13 10:57:32;;;;;;;2.17;0.70;;;19.00;91.10;;;;;;5106908;28;20047;-77
2022/05/13 11:00:02;;;;;;;6.53;0.85;;;19.10;92.60;;;;;;5057411;28;20058;-78
2022/05/13 11:02:53;;;;;;;4.03;0.90;;;19.30;91.50;;;;;;5105506;28;20126;-77
2022/05/13 11:05:32;;;;;;;6.68;0.80;;;19.30;89.50;;;;;;5088630;28;20044;-77
2022/05/13 11:08:47;;;;;;;4.03;0.90;;;19.00;92.00;;;;;;5104708;28;20055;-78
2022/05/13 11:11:44;;;;;;;4.65;0.93;;;18.60;91.30;;;;;;5106915;28;20477;-77
2022/05/13 11:14:21;;;;;;;7.18;1.23;;;18.30;92.60;;;;;;5088435;28;20044;-77
2022/05/13 11:17:15;;;;;;;5.30;1.10;;;18.00;95.60;;;;;;5124231;28;20055;-77
2022/05/13 11:20:04;;;;;;;6.72;0.70;;;17.90;93.70;;;;;;5108486;28;20128;-77
2022/05/13 11:22:35;;;;;;;4.47;1.05;;;17.70;94.80;;;;;;5113347;27;20418;-77
2022/05/13 11:25:55;;;;;;;2.33;0.60;;;17.60;96.60;;;;;;5130686;27;20083;-77
2022/05/13 11:28:38;;;;;;;4.68;0.95;;;17.50;95.70;;;;;;5111206;27;20043;-77
2022/05/13 11:31:46;;;;;;;4.30;0.80;;;17.50;95.90;;;;;;5131504;27;20039;-77
2022/05/13 11:34:34;;;;;;;7.63;1.10;;;17.50;96.90;;;;;;5094983;27;20599;-77
2022/05/13 11:37:04;;;;;;;7.20;0.80;;;17.50;97.40;;;;;;5130902;27;20039;-77
2022/05/13 11:40:08;;;;;;;2.15;0.80;;;17.70;97.70;;;;;;5112379;27;20517;-76
2022/05/13 11:45:40;;;;;;;5.88;1.23;;;17.80;95.90;;;;;;5130461;27;20123;-77
2022/05/13 11:48:27;;;;;;;7.25;1.00;;;17.80;97.20;;;;;;5112180;27;20490;-76
2022/05/13 11:51:12;;;;;;;2.60;0.80;;;17.80;96.40;;;;;;5094742;27;20053;-77
2022/05/13 11:53:44;;;;;;;4.38;1.20;;;17.90;97.90;;;;;;5111800;27;20406;-76
2022/05/13 11:56:13;;;;;;;2.78;0.95;;;17.90;98.00;;;;;;5130008;27;20050;-77
2022/05/13 11:58:45;;;;;;;5.88;1.45;;;17.90;96.70;;;;;;5130318;27;20043;-77
2022/05/13 12:01:11;;;;;;;3.28;0.77;;;17.90;97.60;;;;;;5113016;27;20364;-76
2022/05/13 12:03:39;;;;;;;4.28;0.90;;;17.90;97.70;;;;;;5129695;27;20043;-77
2022/05/13 12:06:10;;;;;;;7.95;1.10;;;17.90;97.50;;;;;;5130804;27;20046;-76
2022/05/13 12:08:36;;;;;;;3.05;0.50;;;17.70;97.10;;;;;;5130478;27;20049;-77
2022/05/13 12:11:02;;;;;;;3.42;1.23;;;17.80;97.50;;;;;;5130477;27;20039;-76
2022/05/13 12:13:58;;;;;;;3.13;0.57;;;17.70;97.00;;;;;;5130174;27;20043;-77
2022/05/13 12:16:36;;;;;;;2.47;1.05;;;17.50;95.70;;;;;;5129168;27;20112;-77
2022/05/13 12:19:28;;;;;;;4.40;0.73;;;17.50;96.50;;;;;;5130512;27;20051;-77
2022/05/13 12:22:31;;;;;;;6.10;1.23;;;17.50;97.00;;;;;;5129611;27;20049;-77
2022/05/13 12:25:02;;;;;;;;;;;17.50;96.70;;;;;;5111163;27;20483;-77
2022/05/13 12:27:42;;;;;;;2.95;0.80;;;17.70;95.50;;;;;;5111853;27;19946;-77
2022/05/13 12:30:30;;;;;;;5.85;0.80;;;17.90;97.20;;;;;;5111343;27;20047;-78
2022/05/13 12:33:16;;;;;;;6.55;1.02;;;18.20;94.60;;;;;;5110731;27;20047;-77
2022/05/13 12:38:31;;;;;;;6.50;1.23;;;18.30;95.90;;;;;;5111151;27;20047;-77
2022/05/13 12:41:09;;;;;;;5.93;1.08;;;18.30;96.50;;;;;;5111508;27;20138;-77
2022/05/13 12:44:20;;;;;;;4.45;1.08;;;18.10;96.60;;;;;;5111578;27;20074;-76
2022/05/13 12:46:51;;;;;;;7.45;1.30;;;18.90;96.90;;;;;;5047736;27;20096;-76
2022/05/13 12:49:28;;;;;;;6.57;1.00;;;18.10;97.80;;;;;;5110865;27;20081;-75
2022/05/13 12:52:09;;;;;;;4.40;1.10;;;18.50;97.40;;;;;;5110978;27;20451;-75
2022/05/13 12:54:48;;;;;;;6.90;1.10;;;18.60;96.40;;;;;;5128462;27;20051;-75
2022/05/13 12:57:23;;;;;;;5.47;0.82;;;18.60;96.30;;;;;;5129315;27;20097;-75
2022/05/13 12:59:52;;;;;;;5.20;1.00;;;18.60;94.40;;;;;;5110139;27;20051;-76
2022/05/13 13:02:23;;;;;;;4.63;0.73;;;18.60;95.60;;;;;;5110701;27;20047;-75
2022/05/13 13:05:02;;;;;;;6.38;1.33;;;18.60;95.50;;;;;;5129069;27;20443;-76
2022/05/13 13:07:32;;;;;;;7.97;1.65;;;18.60;96.00;;;;;;5109906;27;20121;-74
2022/05/13 13:09:59;;;;;;;5.57;0.98;;;18.50;96.20;;;;;;5110485;27;20049;-75
2022/05/13 13:12:34;;;;;;;5.60;1.30;;;18.40;96.20;;;;;;5109608;27;20104;-76
2022/05/13 13:15:28;;;;;;;9.15;1.05;;;18.50;93.70;;;;;;5109977;27;20059;-75
2022/05/13 13:17:54;;;;;;;5.13;1.23;;;18.50;92.20;;;;;;5110831;27;20051;-76
2022/05/13 13:20:21;;;;;;;2.53;0.70;;;18.00;93.80;;;;;;5092306;27;20444;-75
2022/05/13 13:22:52;;;;;;;2.33;0.50;;;18.20;92.80;;;;;;5109814;27;20059;-75
2022/05/13 13:25:45;;;;;;;2.17;0.63;;;18.20;92.20;;;;;;5109956;27;20051;-76
2022/05/13 13:28:32;;;;;;;3.85;1.15;;;18.40;90.00;;;;;;5093149;27;20039;-76
2022/05/13 13:31:09;;;;;;;4.45;1.15;;;18.50;91.00;;;;;;5109462;27;20100;-76
2022/05/13 13:33:44;;;;;;;6.75;1.08;;;18.60;90.00;;;;;;5109053;27;20096;-77
2022/05/13 13:36:14;;;;;;;5.38;1.33;;;18.60;91.50;;;;;;5128225;27;20046;-77
2022/05/13 13:38:46;;;;;;;3.28;0.82;;;18.80;91.00;;;;;;5127923;27;20053;-76